createdAt,value
2018-04-29T00:01:29.930Z,3.00
2018-04-29T00:03:56.148Z,2.92
2018-04-29T00:06:23.412Z,2.35
2018-04-29T00:08:49.571Z,3.15
2018-04-29T00:11:15.816Z,2.37
2018-04-29T00:13:42.008Z,3.05
2018-04-29T00:16:09.283Z,3.33
2018-04-29T00:18:35.457Z,3.13
2018-04-29T00:21:03.342Z,5.90
2018-04-29T00:23:29.498Z,6.67
2018-04-29T00:25:55.690Z,5.43
2018-04-29T00:28:21.890Z,5.00
2018-04-29T00:30:48.050Z,4.30
2018-04-29T00:33:15.314Z,4.68
2018-04-29T00:35:41.491Z,5.77
2018-04-29T00:38:08.966Z,6.10
2018-04-29T00:40:35.216Z,4.90
2018-04-29T00:43:01.390Z,6.05
2018-04-29T00:45:27.569Z,4.43
2018-04-29T00:47:53.735Z,4.72
2018-04-29T00:50:19.934Z,4.20
2018-04-29T00:52:46.087Z,5.22
2018-04-29T00:55:12.295Z,4.18
2018-04-29T00:57:38.477Z,3.72
2018-04-29T01:00:04.660Z,4.05
2018-04-29T01:02:31.967Z,3.70
2018-04-29T01:04:58.118Z,3.15
2018-04-29T01:07:25.378Z,2.40
2018-04-29T01:09:52.960Z,3.23
2018-04-29T01:12:20.859Z,3.37
2018-04-29T01:14:49.562Z,5.27
2018-04-29T01:17:18.247Z,6.50
2018-04-29T01:19:47.811Z,4.60
2018-04-29T01:22:16.466Z,3.73
2018-04-29T01:24:42.638Z,3.70
2018-04-29T01:27:08.870Z,2.50
2018-04-29T01:29:36.154Z,2.57
2018-04-29T01:32:02.338Z,3.53
2018-04-29T01:34:30.213Z,4.70
2018-04-29T01:36:57.297Z,3.20
2018-04-29T01:39:23.567Z,4.07
2018-04-29T01:41:49.750Z,4.60
2018-04-29T01:44:17.011Z,2.80
2018-04-29T01:46:44.059Z,3.27
2018-04-29T01:49:10.257Z,3.00
2018-04-29T01:51:36.444Z,2.40
2018-04-29T01:54:02.922Z,2.80
2018-04-29T01:56:29.078Z,2.53
2018-04-29T01:58:56.638Z,3.40
2018-04-29T02:01:23.000Z,2.97
2018-04-29T02:03:49.148Z,2.60
2018-04-29T02:06:15.506Z,3.70
2018-04-29T02:08:41.682Z,4.03
2018-04-29T02:11:08.937Z,2.90
2018-04-29T02:13:35.098Z,3.53
2018-04-29T02:16:01.271Z,2.20
2018-04-29T02:18:27.424Z,2.20
2018-04-29T02:20:54.597Z,2.20
2018-04-29T02:23:22.510Z,2.40
2018-04-29T02:25:48.673Z,3.00
2018-04-29T02:28:14.842Z,2.53
2018-04-29T02:30:41.052Z,2.27
2018-04-29T02:33:07.214Z,2.55
2018-04-29T02:35:33.393Z,2.37
2018-04-29T02:37:59.586Z,2.60
2018-04-29T02:40:25.745Z,2.60
2018-04-29T02:42:51.906Z,2.63
2018-04-29T02:45:18.150Z,2.70
2018-04-29T02:47:45.428Z,2.30
2018-04-29T02:50:11.571Z,2.10
2018-04-29T02:52:37.722Z,2.77
2018-04-29T02:55:04.049Z,2.50
2018-04-29T02:57:30.203Z,2.60
2018-04-29T02:59:56.358Z,2.50
2018-04-29T03:02:23.649Z,2.60
2018-04-29T03:04:49.805Z,3.40
2018-04-29T03:07:17.094Z,2.90
2018-04-29T03:09:43.246Z,2.60
2018-04-29T03:12:09.406Z,3.20
2018-04-29T03:14:35.570Z,2.83
2018-04-29T03:17:01.734Z,2.57
2018-04-29T03:19:27.895Z,2.77
2018-04-29T03:21:54.051Z,2.93
2018-04-29T03:24:20.200Z,2.60
2018-04-29T03:26:46.395Z,3.03
2018-04-29T03:29:12.554Z,2.60
2018-04-29T03:31:39.850Z,2.57
2018-04-29T03:34:06.018Z,2.40
2018-04-29T03:36:32.176Z,2.40
2018-04-29T03:38:58.346Z,2.90
2018-04-29T03:41:24.492Z,2.60
2018-04-29T03:43:50.652Z,3.10
2018-04-29T03:46:16.848Z,3.10
2018-04-29T03:48:43.066Z,3.40
2018-04-29T03:51:09.217Z,3.30
2018-04-29T03:53:35.467Z,4.00
2018-04-29T03:56:01.688Z,4.03
2018-04-29T03:58:41.143Z,3.40
2018-04-29T04:01:20.539Z,3.90
2018-04-29T04:03:54.768Z,4.23
2018-04-29T04:06:22.032Z,3.67
2018-04-29T04:08:48.198Z,3.97
2018-04-29T04:11:14.481Z,4.00
2018-04-29T04:13:40.647Z,4.17
2018-04-29T04:16:07.921Z,4.47
2018-04-29T04:18:34.098Z,4.33
2018-04-29T04:21:01.364Z,5.10
2018-04-29T04:23:27.535Z,5.20
2018-04-29T04:25:53.702Z,5.23
2018-04-29T04:28:19.907Z,5.43
2018-04-29T04:30:46.050Z,5.27
2018-04-29T04:33:12.239Z,6.17
2018-04-29T04:35:38.394Z,6.10
2018-04-29T04:38:04.655Z,6.03
2018-04-29T04:40:30.882Z,5.90
2018-04-29T04:42:57.131Z,6.60
2018-04-29T04:45:23.245Z,6.10
2018-04-29T04:47:49.418Z,6.57
2018-04-29T04:50:15.595Z,6.87
2018-04-29T04:52:43.553Z,7.80
2018-04-29T04:55:10.838Z,7.90
2018-04-29T04:57:37.010Z,6.73
2018-04-29T05:00:03.220Z,6.87
2018-04-29T05:02:31.106Z,7.07
2018-04-29T05:04:57.257Z,8.03
2018-04-29T05:07:23.425Z,6.93
2018-04-29T05:09:49.609Z,7.57
2018-04-29T05:12:16.858Z,7.23
2018-04-29T05:14:43.030Z,7.07
2018-04-29T05:17:09.243Z,6.27
2018-04-29T05:19:35.492Z,7.17
2018-04-29T05:22:01.654Z,5.87
2018-04-29T05:24:27.926Z,6.87
2018-04-29T05:26:54.090Z,6.07
2018-04-29T05:29:20.614Z,8.30
2018-04-29T05:31:46.819Z,6.97
2018-04-29T05:34:12.968Z,6.50
2018-04-29T05:36:40.237Z,5.93
2018-04-29T05:39:06.427Z,7.43
2018-04-29T05:41:34.313Z,6.83
2018-04-29T05:44:00.515Z,7.55
2018-04-29T05:46:26.686Z,6.47
2018-04-29T05:48:52.942Z,6.33
2018-04-29T05:51:19.160Z,6.93
2018-04-29T05:53:45.331Z,6.43
2018-04-29T05:56:11.497Z,6.60
2018-04-29T05:58:37.701Z,7.73
2018-04-29T06:01:04.075Z,7.30
2018-04-29T06:03:31.337Z,7.30
2018-04-29T06:05:57.518Z,8.83
2018-04-29T06:08:23.675Z,9.00
2018-04-29T06:10:49.843Z,9.60
2018-04-29T06:13:16.018Z,10.27
2018-04-29T06:15:42.160Z,10.60
2018-04-29T06:18:08.360Z,10.73
2018-04-29T06:20:34.567Z,9.77
2018-04-29T06:23:00.707Z,11.17
2018-04-29T06:25:29.438Z,10.47
2018-04-29T06:27:55.621Z,9.60
2018-04-29T06:30:21.772Z,9.60
2018-04-29T06:32:47.928Z,8.93
2018-04-29T06:35:15.305Z,9.80
2018-04-29T06:37:41.458Z,9.53
2018-04-29T06:40:07.622Z,10.97
2018-04-29T06:42:33.830Z,10.37
2018-04-29T06:44:59.982Z,8.93
2018-04-29T06:47:26.146Z,9.70
2018-04-29T06:49:52.326Z,9.60
2018-04-29T06:52:18.604Z,9.60
2018-04-29T06:54:44.786Z,7.43
2018-04-29T06:57:11.057Z,7.80
2018-04-29T06:59:37.213Z,7.30
2018-04-29T07:02:03.397Z,7.00
2018-04-29T07:04:29.735Z,7.00
2018-04-29T07:06:56.999Z,7.45
2018-04-29T07:09:23.182Z,6.65
2018-04-29T07:11:50.591Z,5.85
2018-04-29T07:14:16.774Z,6.18
2018-04-29T07:16:42.967Z,7.32
2018-04-29T07:19:09.154Z,7.65
2018-04-29T07:21:36.439Z,7.37
2018-04-29T07:24:02.626Z,7.53
2018-04-29T07:26:28.821Z,7.22
2018-04-29T07:28:56.105Z,7.95
2018-04-29T07:31:22.266Z,7.47
2018-04-29T07:33:49.550Z,7.80
2018-04-29T07:36:15.727Z,9.52
2018-04-29T07:38:43.634Z,8.23
2018-04-29T07:41:09.891Z,7.80
2018-04-29T07:43:36.251Z,8.32
2018-04-29T07:46:02.436Z,8.50
2018-04-29T07:48:28.622Z,9.38
2018-04-29T07:50:54.801Z,8.70
2018-04-29T07:53:20.968Z,9.52
2018-04-29T07:55:48.872Z,7.90
2018-04-29T07:58:16.039Z,8.10
2018-04-29T08:00:43.497Z,6.80
2018-04-29T08:03:09.622Z,7.68
2018-04-29T08:05:37.035Z,7.10
2018-04-29T08:08:04.311Z,7.47
2018-04-29T08:10:30.528Z,7.65
2018-04-29T08:12:56.715Z,9.20
2018-04-29T08:15:22.921Z,10.63
2018-04-29T08:17:51.128Z,9.25
2018-04-29T08:20:17.818Z,8.32
2018-04-29T08:22:45.159Z,9.90
2018-04-29T08:25:11.805Z,8.63
2018-04-29T08:27:38.039Z,9.10
2018-04-29T08:30:04.395Z,8.35
2018-04-29T08:32:32.314Z,7.60
2018-04-29T08:34:59.656Z,8.23
2018-04-29T08:37:25.867Z,8.75
2018-04-29T08:39:52.063Z,8.60
2018-04-29T08:42:18.246Z,8.27
2018-04-29T08:44:44.419Z,7.82
2018-04-29T08:47:11.138Z,6.93
2018-04-29T08:49:37.306Z,6.87
2018-04-29T08:52:03.551Z,7.62
2018-04-29T08:54:29.734Z,7.05
2018-04-29T08:56:55.943Z,6.35
2018-04-29T08:59:22.171Z,6.37
2018-04-29T09:01:48.435Z,6.32
2018-04-29T09:04:14.634Z,6.10
2018-04-29T09:06:41.167Z,6.40
2018-04-29T09:09:07.339Z,5.87
2018-04-29T09:11:33.531Z,5.65
2018-04-29T09:13:59.735Z,5.97
2018-04-29T09:16:27.645Z,6.22
2018-04-29T09:18:53.935Z,6.10
2018-04-29T09:21:20.101Z,5.30
2018-04-29T09:23:47.453Z,5.95
2018-04-29T09:26:13.618Z,5.72
2018-04-29T09:28:39.790Z,5.75
2018-04-29T09:31:05.957Z,6.60
2018-04-29T09:33:32.123Z,6.93
2018-04-29T09:35:58.289Z,7.82
2018-04-29T09:38:24.554Z,6.82
2018-04-29T09:40:50.715Z,7.70
2018-04-29T09:43:16.940Z,7.12
2018-04-29T09:45:43.093Z,6.82
2018-04-29T09:48:09.276Z,7.18
2018-04-29T09:50:36.562Z,7.20
2018-04-29T09:53:02.707Z,7.35
2018-04-29T09:55:28.971Z,6.78
2018-04-29T09:57:55.149Z,7.07
2018-04-29T10:00:26.542Z,7.93
2018-04-29T10:02:52.810Z,6.72
2018-04-29T10:05:19.031Z,6.07
2018-04-29T10:07:45.199Z,7.18
2018-04-29T10:10:11.361Z,6.53
2018-04-29T10:12:37.554Z,6.70
2018-04-29T10:15:04.842Z,6.28
2018-04-29T10:17:30.998Z,6.78
2018-04-29T10:19:58.299Z,4.97
2018-04-29T10:22:24.458Z,5.05
2018-04-29T10:24:51.742Z,5.57
2018-04-29T10:27:17.910Z,4.28
2018-04-29T10:29:45.193Z,3.62
2018-04-29T10:32:11.466Z,3.42
2018-04-29T10:34:37.711Z,3.47
2018-04-29T10:37:03.891Z,4.20
2018-04-29T10:39:31.194Z,3.37
2018-04-29T10:41:57.390Z,3.20
2018-04-29T10:44:23.550Z,2.83
2018-04-29T10:46:50.502Z,3.60
2018-04-29T10:49:16.664Z,3.37
2018-04-29T10:51:42.837Z,3.35
2018-04-29T10:54:09.058Z,2.87
2018-04-29T10:56:35.220Z,3.25
2018-04-29T10:59:02.163Z,2.87
2018-04-29T11:01:29.067Z,2.95
2018-04-29T11:03:55.221Z,2.70
2018-04-29T11:06:21.407Z,2.70
2018-04-29T11:08:47.588Z,2.72
2018-04-29T11:11:13.819Z,2.53
2018-04-29T11:13:40.258Z,2.37
2018-04-29T11:16:07.540Z,2.00
2018-04-29T11:18:33.710Z,2.33
2018-04-29T11:21:00.606Z,2.70
2018-04-29T11:23:26.780Z,2.20
2018-04-29T11:25:53.031Z,2.55
2018-04-29T11:28:19.202Z,2.35
2018-04-29T11:30:45.461Z,2.40
2018-04-29T11:33:11.642Z,2.10
2018-04-29T11:35:37.888Z,1.90
2018-04-29T11:38:04.055Z,2.03
2018-04-29T11:40:30.636Z,1.80
2018-04-29T11:42:56.761Z,2.15
2018-04-29T11:45:23.268Z,2.08
2018-04-29T11:47:49.534Z,1.62
2018-04-29T11:50:15.701Z,2.17
2018-04-29T11:52:41.955Z,1.10
2018-04-29T11:55:08.154Z,1.52
2018-04-29T11:57:34.475Z,1.20
2018-04-29T12:00:00.631Z,1.65
2018-04-29T12:02:27.087Z,1.58
2018-04-29T12:04:53.190Z,1.65
2018-04-29T12:07:19.348Z,1.50
2018-04-29T12:09:45.538Z,1.90
2018-04-29T12:12:12.439Z,2.00
2018-04-29T12:14:38.620Z,1.58
2018-04-29T12:17:05.011Z,1.77
2018-04-29T12:19:31.167Z,1.55
2018-04-29T12:21:57.382Z,1.80
2018-04-29T12:24:23.570Z,1.52
2018-04-29T12:26:49.925Z,1.98
2018-04-29T12:29:16.118Z,1.87
2018-04-29T12:31:42.293Z,1.98
2018-04-29T12:34:08.503Z,1.77
2018-04-29T12:36:34.796Z,1.40
2018-04-29T12:39:01.765Z,1.67
2018-04-29T12:41:27.943Z,2.40
2018-04-29T12:43:54.857Z,1.92
2018-04-29T12:46:21.047Z,1.60
2018-04-29T12:48:47.217Z,1.30
2018-04-29T12:51:13.525Z,1.58
2018-04-29T12:53:39.802Z,1.45
2018-04-29T12:56:05.991Z,1.52
2018-04-29T12:58:32.260Z,1.95
2018-04-29T13:00:58.481Z,1.70
2018-04-29T13:03:25.378Z,1.62
2018-04-29T13:05:51.554Z,1.50
2018-04-29T13:08:17.718Z,1.45
2018-04-29T13:10:43.886Z,1.40
2018-04-29T13:13:10.806Z,1.60
2018-04-29T13:15:37.173Z,1.05
2018-04-29T13:18:03.357Z,1.50
2018-04-29T13:20:30.642Z,2.00
2018-04-29T13:22:56.894Z,1.67
2018-04-29T13:25:24.161Z,1.70
2018-04-29T13:27:50.357Z,1.02
2018-04-29T13:30:17.282Z,1.85
2018-04-29T13:32:44.222Z,1.75
2018-04-29T13:35:12.063Z,1.83
2018-04-29T13:37:38.956Z,1.85
2018-04-29T13:40:05.167Z,2.35
2018-04-29T13:42:31.653Z,2.10
2018-04-29T13:44:57.854Z,2.03
2018-04-29T13:47:24.134Z,1.90
2018-04-29T13:49:50.711Z,2.05
2018-04-29T13:52:16.950Z,2.30
2018-04-29T13:54:43.075Z,1.90
2018-04-29T13:57:09.280Z,2.20
2018-04-29T13:59:35.454Z,2.28
2018-04-29T14:02:01.646Z,2.30
2018-04-29T14:04:29.002Z,1.70
2018-04-29T14:06:55.817Z,1.87
2018-04-29T14:09:22.663Z,2.37
2018-04-29T14:11:48.867Z,2.35
2018-04-29T14:14:15.019Z,2.37
2018-04-29T14:16:41.282Z,1.90
2018-04-29T14:19:07.461Z,2.25
2018-04-29T14:21:33.625Z,2.22
2018-04-29T14:23:59.868Z,2.47
2018-04-29T14:26:26.074Z,2.05
2018-04-29T14:28:52.254Z,1.67
2018-04-29T14:31:18.471Z,1.83
2018-04-29T14:33:44.792Z,2.10
2018-04-29T14:36:10.966Z,2.15
2018-04-29T14:38:37.130Z,1.80
2018-04-29T14:41:03.359Z,1.70
2018-04-29T14:43:29.622Z,2.33
2018-04-29T14:45:56.919Z,2.42
2018-04-29T14:48:23.098Z,2.03
2018-04-29T14:50:49.263Z,1.85
2018-04-29T14:53:15.431Z,2.30
2018-04-29T14:55:41.618Z,2.50
2018-04-29T14:58:08.522Z,2.05
2018-04-29T15:00:34.715Z,2.17
2018-04-29T15:03:00.873Z,1.80
2018-04-29T15:05:27.810Z,2.17
2018-04-29T15:07:54.739Z,1.87
2018-04-29T15:10:21.693Z,2.55
2018-04-29T15:12:47.842Z,2.10
2018-04-29T15:15:14.037Z,2.83
2018-04-29T15:17:40.199Z,2.58
2018-04-29T15:20:07.474Z,2.30
2018-04-29T15:22:33.666Z,2.60
2018-04-29T15:24:59.830Z,2.25
2018-04-29T15:27:26.080Z,2.70
2018-04-29T15:29:52.278Z,2.30
2018-04-29T15:32:18.450Z,2.60
2018-04-29T15:34:44.610Z,2.35
2018-04-29T15:37:12.022Z,2.47
2018-04-29T15:39:38.203Z,2.45
2018-04-29T15:42:04.357Z,2.62
2018-04-29T15:44:30.551Z,2.20
2018-04-29T15:46:56.718Z,2.20
2018-04-29T15:49:22.889Z,2.65
2018-04-29T15:51:49.066Z,2.20
2018-04-29T15:54:15.229Z,2.50
2018-04-29T15:56:41.406Z,2.90
2018-04-29T15:59:07.606Z,2.42
2018-04-29T16:01:33.758Z,3.10
2018-04-29T16:03:59.918Z,2.72
2018-04-29T16:06:26.083Z,2.22
2018-04-29T16:08:52.262Z,2.95
2018-04-29T16:11:18.448Z,2.47
2018-04-29T16:13:44.728Z,2.45
2018-04-29T16:16:10.936Z,2.95
2018-04-29T16:18:37.119Z,2.55
2018-04-29T16:21:03.301Z,3.10
2018-04-29T16:23:29.504Z,2.85
2018-04-29T16:25:55.691Z,2.78
2018-04-29T16:28:21.863Z,5.18
2018-04-29T16:30:48.022Z,4.22
2018-04-29T16:33:14.219Z,5.25
2018-04-29T16:35:40.413Z,3.53
2018-04-29T16:38:06.648Z,3.12
2018-04-29T16:40:32.754Z,3.28
2018-04-29T16:42:58.943Z,3.53
2018-04-29T16:45:25.282Z,3.58
2018-04-29T16:47:51.482Z,3.28
2018-04-29T16:50:17.658Z,3.15
2018-04-29T16:52:43.811Z,3.97
2018-04-29T16:55:10.015Z,4.45
2018-04-29T16:57:36.202Z,4.20
2018-04-29T17:00:02.383Z,4.25
2018-04-29T17:02:28.573Z,4.03
2018-04-29T17:04:54.761Z,3.55
2018-04-29T17:07:21.677Z,3.72
2018-04-29T17:09:48.974Z,3.35
2018-04-29T17:12:15.137Z,2.97
2018-04-29T17:14:41.327Z,3.00
2018-04-29T17:17:07.573Z,3.10
2018-04-29T17:19:33.730Z,5.30
2018-04-29T17:21:59.897Z,3.33
2018-04-29T17:24:26.078Z,4.68
2018-04-29T17:26:53.411Z,3.33
2018-04-29T17:29:21.448Z,3.03
2018-04-29T17:31:48.695Z,3.05
2018-04-29T17:34:14.871Z,3.95
2018-04-29T17:36:41.026Z,3.33
2018-04-29T17:39:07.318Z,3.53
2018-04-29T17:41:33.484Z,4.12
2018-04-29T17:43:59.695Z,3.33
2018-04-29T17:46:25.951Z,3.03
2018-04-29T17:48:52.157Z,2.85
2018-04-29T17:51:18.322Z,2.75
2018-04-29T17:53:45.608Z,3.67
2018-04-29T17:56:11.835Z,2.92
2018-04-29T17:58:38.367Z,2.78
2018-04-29T18:01:04.666Z,2.90
2018-04-29T18:03:30.838Z,3.67
2018-04-29T18:05:57.007Z,2.62
2018-04-29T18:08:23.230Z,2.53
2018-04-29T18:10:50.514Z,2.85
2018-04-29T18:13:16.699Z,2.58
2018-04-29T18:15:44.176Z,2.45
2018-04-29T18:18:11.041Z,3.08
2018-04-29T18:20:37.242Z,3.97
2018-04-29T18:23:03.601Z,4.65
2018-04-29T18:25:29.865Z,7.47
2018-04-29T18:27:56.090Z,3.65
2018-04-29T18:30:22.383Z,3.55
2018-04-29T18:32:48.583Z,3.25
2018-04-29T18:35:15.682Z,3.28
2018-04-29T18:37:42.032Z,2.65
2018-04-29T18:40:08.342Z,3.12
2018-04-29T18:42:34.747Z,3.40
2018-04-29T18:45:00.942Z,3.87
2018-04-29T18:47:27.212Z,3.35
2018-04-29T18:49:53.663Z,2.80
2018-04-29T18:52:19.862Z,4.22
2018-04-29T18:54:46.019Z,3.67
2018-04-29T18:57:12.333Z,4.28
2018-04-29T18:59:39.473Z,3.03
2018-04-29T19:02:05.804Z,3.53
2018-04-29T19:04:32.131Z,3.37
2018-04-29T19:06:58.599Z,3.70
2018-04-29T19:09:26.094Z,3.37
2018-04-29T19:11:52.313Z,3.28
2018-04-29T19:14:18.495Z,2.97
2018-04-29T19:16:44.689Z,2.83
2018-04-29T19:19:11.186Z,3.50
2018-04-29T19:21:38.864Z,3.22
2018-04-29T19:24:05.412Z,3.15
2018-04-29T19:26:31.834Z,3.10
2018-04-29T19:28:58.118Z,3.30
2018-04-29T19:31:24.582Z,3.08
2018-04-29T19:33:50.776Z,3.35
2018-04-29T19:36:17.063Z,3.40
2018-04-29T19:38:43.486Z,3.75
2018-04-29T19:41:09.855Z,3.10
2018-04-29T19:43:36.050Z,3.83
2018-04-29T19:46:02.262Z,4.07
2018-04-29T19:48:29.475Z,3.35
2018-04-29T19:50:55.722Z,3.72
2018-04-29T19:53:23.051Z,3.97
2018-04-29T19:55:49.551Z,3.83
2018-04-29T19:58:15.789Z,3.40
2018-04-29T20:00:41.995Z,3.80
2018-04-29T20:03:09.107Z,3.95
2018-04-29T20:05:36.568Z,4.95
2018-04-29T20:08:04.011Z,3.45
2018-04-29T20:10:31.955Z,3.25
2018-04-29T20:13:02.155Z,4.20
2018-04-29T20:15:34.370Z,6.05
2018-04-29T20:18:11.795Z,4.68
2018-04-29T20:20:38.006Z,3.90
2018-04-29T20:23:07.782Z,4.15
2018-04-29T20:25:35.378Z,3.47
2018-04-29T20:28:03.723Z,3.58
2018-04-29T20:30:30.594Z,3.75
2018-04-29T20:32:56.766Z,4.25
2018-04-29T20:35:22.978Z,3.60
2018-04-29T20:37:49.355Z,3.53
2018-04-29T20:40:15.527Z,3.47
2018-04-29T20:42:43.328Z,4.20
2018-04-29T20:45:09.826Z,4.03
2018-04-29T20:47:36.363Z,3.80
2018-04-29T20:50:02.825Z,3.87
2018-04-29T20:52:30.343Z,4.45
2018-04-29T20:54:58.331Z,4.18
2018-04-29T20:57:26.399Z,4.50
2018-04-29T20:59:53.674Z,3.83
2018-04-29T21:02:19.850Z,4.30
2018-04-29T21:04:46.057Z,4.03
2018-04-29T21:07:13.671Z,4.22
2018-04-29T21:09:40.101Z,3.90
2018-04-29T21:12:08.203Z,3.83
2018-04-29T21:14:35.056Z,3.58
2018-04-29T21:17:01.339Z,3.85
2018-04-29T21:19:27.856Z,4.10
2018-04-29T21:21:54.046Z,4.07
2018-04-29T21:24:22.247Z,3.90
2018-04-29T21:26:48.583Z,3.70
2018-04-29T21:29:14.961Z,3.80
2018-04-29T21:31:41.215Z,3.53
2018-04-29T21:34:07.564Z,3.87
2018-04-29T21:36:33.801Z,3.78
2018-04-29T21:39:00.011Z,3.70
2018-04-29T21:41:27.426Z,3.55
2018-04-29T21:43:53.765Z,4.18
2018-04-29T21:46:19.975Z,3.97
2018-04-29T21:48:46.226Z,3.92
2018-04-29T21:51:12.442Z,3.83
2018-04-29T21:53:38.636Z,4.28
2018-04-29T21:56:04.857Z,3.60
2018-04-29T21:58:31.065Z,3.85
2018-04-29T22:00:58.646Z,3.90
2018-04-29T22:03:24.908Z,3.33
2018-04-29T22:05:51.118Z,3.78
2018-04-29T22:08:18.810Z,4.20
2018-04-29T22:10:45.046Z,4.30
2018-04-29T22:13:11.269Z,3.80
2018-04-29T22:15:37.473Z,3.80
2018-04-29T22:18:03.674Z,4.12
2018-04-29T22:20:29.875Z,3.72
2018-04-29T22:22:56.051Z,3.83
2018-04-29T22:25:22.274Z,3.90
2018-04-29T22:27:48.513Z,3.55
2018-04-29T22:30:14.723Z,4.07
2018-04-29T22:32:40.940Z,3.75
2018-04-29T22:35:07.295Z,3.80
2018-04-29T22:37:33.521Z,4.07
2018-04-29T22:39:59.721Z,4.07
2018-04-29T22:42:25.882Z,4.30
2018-04-29T22:44:52.070Z,3.95
2018-04-29T22:47:18.255Z,4.12
2018-04-29T22:49:44.410Z,4.35
2018-04-29T22:52:11.828Z,4.25
2018-04-29T22:54:39.371Z,5.47
2018-04-29T22:57:05.831Z,4.43
2018-04-29T22:59:32.022Z,3.53
2018-04-29T23:01:59.331Z,3.75
2018-04-29T23:04:25.857Z,3.40
2018-04-29T23:06:52.147Z,3.50
2018-04-29T23:09:18.335Z,3.40
2018-04-29T23:11:45.106Z,4.10
2018-04-29T23:14:11.277Z,3.65
2018-04-29T23:16:37.816Z,3.50
2018-04-29T23:19:05.796Z,3.33
2018-04-29T23:21:32.307Z,3.50
2018-04-29T23:23:58.514Z,3.55
2018-04-29T23:26:24.872Z,4.15
2018-04-29T23:28:51.665Z,3.97
2018-04-29T23:31:17.863Z,3.65
2018-04-29T23:33:44.022Z,3.50
2018-04-29T23:36:10.184Z,5.25
2018-04-29T23:38:36.771Z,4.85
2018-04-29T23:41:03.187Z,4.55
2018-04-29T23:43:29.412Z,6.05
2018-04-29T23:45:55.610Z,5.00
2018-04-29T23:48:22.883Z,3.85
2018-04-29T23:50:49.343Z,2.90
2018-04-29T23:53:16.550Z,2.70
2018-04-29T23:55:42.714Z,2.28
2018-04-29T23:58:09.814Z,2.85
